地図

経路データ

SID SEASON NUMBER BASIN SUBBASIN NAME ISO_TIME NATURE LAT LON WMO_WIND WMO_PRES WMO_AGENCY TRACK_TYPE DIST2LAND LANDFALL IFLAG USA_AGENCY USA_ATCF_ID USA_LAT USA_LON USA_RECORD USA_STATUS USA_WIND USA_PRES USA_SSHS USA_R34_NE USA_R34_SE USA_R34_SW USA_R34_NW USA_R50_NE USA_R50_SE USA_R50_SW USA_R50_NW USA_R64_NE USA_R64_SE USA_R64_SW USA_R64_NW USA_POCI USA_ROCI USA_RMW USA_EYE TOKYO_LAT TOKYO_LON TOKYO_GRADE TOKYO_WIND TOKYO_PRES TOKYO_R50_DIR TOKYO_R50_LONG TOKYO_R50_SHORT TOKYO_R30_DIR TOKYO_R30_LONG TOKYO_R30_SHORT TOKYO_LAND CMA_LAT CMA_LON CMA_CAT CMA_WIND CMA_PRES HKO_LAT HKO_LON HKO_CAT HKO_WIND HKO_PRES NEWDELHI_LAT NEWDELHI_LON NEWDELHI_GRADE NEWDELHI_WIND NEWDELHI_PRES NEWDELHI_CI NEWDELHI_DP NEWDELHI_POCI REUNION_LAT REUNION_LON REUNION_TYPE REUNION_WIND REUNION_PRES REUNION_TNUM REUNION_CI REUNION_RMW REUNION_R34_NE REUNION_R34_SE REUNION_R34_SW REUNION_R34_NW REUNION_R50_NE REUNION_R50_SE REUNION_R50_SW REUNION_R50_NW REUNION_R64_NE REUNION_R64_SE REUNION_R64_SW REUNION_R64_NW BOM_LAT BOM_LON BOM_TYPE BOM_WIND BOM_PRES BOM_TNUM BOM_CI BOM_RMW BOM_R34_NE BOM_R34_SE BOM_R34_SW BOM_R34_NW BOM_R50_NE BOM_R50_SE BOM_R50_SW BOM_R50_NW BOM_R64_NE BOM_R64_SE BOM_R64_SW BOM_R64_NW BOM_ROCI BOM_POCI BOM_EYE BOM_POS_METHOD BOM_PRES_METHOD NADI_LAT NADI_LON NADI_CAT NADI_WIND NADI_PRES WELLINGTON_LAT WELLINGTON_LON WELLINGTON_WIND WELLINGTON_PRES DS824_LAT DS824_LON DS824_STAGE DS824_WIND DS824_PRES TD9636_LAT TD9636_LON TD9636_STAGE TD9636_WIND TD9636_PRES TD9635_LAT TD9635_LON TD9635_WIND TD9635_PRES TD9635_ROCI NEUMANN_LAT NEUMANN_LON NEUMANN_CLASS NEUMANN_WIND NEUMANN_PRES MLC_LAT MLC_LON MLC_CLASS MLC_WIND MLC_PRES USA_GUST BOM_GUST BOM_GUST_PER REUNION_GUST REUNION_GUST_PER USA_SEAHGT USA_SEARAD_NE USA_SEARAD_SE USA_SEARAD_SW USA_SEARAD_NW STORM_SPEED STORM_DIR
1981240N17257 1981 72 EP MM IRWIN 1981-08-27 18:00:00 TS 16.5000 -103.500 30 hurdat_epa main 190 154 O_________O___ hurdat_epa EP091981 16.5000 -103.500 TD 30 -1 16.5000 -103.500 1 30 8 334
1981240N17257 1981 72 EP MM IRWIN 1981-08-27 21:00:00 TS 16.8709 -103.691 main 154 130 P_________P___ EP091981 16.8750 -103.690 TD 30 -1 16.8586 -103.695 1 30 8 331
1981240N17257 1981 72 EP MM IRWIN 1981-08-28 00:00:00 TS 17.2000 -103.900 30 hurdat_epa main 130 109 O_________O___ hurdat_epa EP091981 17.2000 -103.900 TD 30 -1 17.2000 -103.900 1 30 7 324
1981240N17257 1981 72 EP MM IRWIN 1981-08-28 03:00:00 TS 17.4657 -104.138 main 109 107 P_________P___ EP091981 17.4500 -104.143 TD 30 -1 17.5127 -104.124 1 30 7 318
1981240N17257 1981 72 EP MM IRWIN 1981-08-28 06:00:00 TS 17.7267 -104.392 30 hurdat_epa main 116 110 O_________P___ hurdat_epa EP091981 17.7000 -104.400 TD 30 -1 17.8067 -104.366 1 30 8 321
1981240N17257 1981 72 EP MM IRWIN 1981-08-28 09:00:00 TS 18.0505 -104.638 main 105 90 P_________P___ EP091981 18.0349 -104.643 TD 30 -1 18.0973 -104.626 1 30 8 324
1981240N17257 1981 72 EP MM IRWIN 1981-08-28 12:00:00 TS 18.4000 -104.900 30 hurdat_epa main 90 64 O_________O___ hurdat_epa EP091981 18.4000 -104.900 TD 30 -1 18.4000 -104.900 1 30 9 323
1981240N17257 1981 72 EP MM IRWIN 1981-08-28 15:00:00 TS 18.7454 -105.192 main 69 61 P_________P___ EP091981 18.7500 -105.193 TD 37 0 18.7316 -105.190 1 33 9 321
1981240N17257 1981 72 EP MM IRWIN 1981-08-28 18:00:00 TS 19.0944 -105.498 45 hurdat_epa main 62 53 O_________P___ hurdat_epa EP091981 19.1000 -105.500 TS 45 0 19.0775 -105.493 1 37 9 321
1981240N17257 1981 72 EP MM IRWIN 1981-08-28 21:00:00 TS 19.4461 -105.800 main 62 56 P_________P___ EP091981 19.4500 -105.800 TS 45 0 19.4347 -105.799 1 41 9 321
1981240N17257 1981 72 EP MM IRWIN 1981-08-29 00:00:00 TS 19.8000 -106.100 45 hurdat_epa main 66 66 O_________O___ hurdat_epa EP091981 19.8000 -106.100 TS 45 0 19.8000 -106.100 2 45 9 321
1981240N17257 1981 72 EP MM IRWIN 1981-08-29 03:00:00 TS 20.1518 -106.399 main 76 76 P_________P___ EP091981 20.1425 -106.408 TS 40 0 20.1797 -106.374 2 42 9 322
1981240N17257 1981 72 EP MM IRWIN 1981-08-29 06:00:00 TS 20.5161 -106.686 35 hurdat_epa main 104 104 O_________P___ hurdat_epa EP091981 20.5000 -106.700 TS 35 0 20.5646 -106.643 2 40 9 326
1981240N17257 1981 72 EP MM IRWIN 1981-08-29 09:00:00 TS 20.9105 -106.947 main 136 136 P_________P___ EP091981 20.8999 -106.958 TS 35 0 20.9422 -106.915 2 37 9 328
1981240N17257 1981 72 EP MM IRWIN 1981-08-29 12:00:00 TS 21.3000 -107.200 35 hurdat_epa main 182 178 O_________O___ hurdat_epa EP091981 21.3000 -107.200 TS 35 0 21.3000 -107.200 2 35 9 328
1981240N17257 1981 72 EP MM IRWIN 1981-08-29 15:00:00 TS 21.6616 -107.446 main 187 187 P_________P___ EP091981 21.6723 -107.428 TS 35 0 21.6294 -107.499 2 33 8 324
1981240N17257 1981 72 EP MM IRWIN 1981-08-29 18:00:00 TS 21.9843 -107.728 35 hurdat_epa main 189 181 O_________P___ hurdat_epa EP091981 22.0000 -107.700 TS 35 0 21.9371 -107.813 2 32 8 314
1981240N17257 1981 72 EP MM IRWIN 1981-08-29 21:00:00 TS 22.2498 -108.100 main 181 128 P_________P___ EP091981 22.2576 -108.085 TS 32 -1 22.2262 -108.146 2 31 9 306
1981240N17257 1981 72 EP MM IRWIN 1981-08-30 00:00:00 TS 22.5000 -108.500 30 hurdat_epa main 128 84 O_________O___ hurdat_epa EP091981 22.5000 -108.500 TD 30 -1 22.5000 -108.500 1 30 9 309
1981240N17257 1981 72 EP MM IRWIN 1981-08-30 03:00:00 TS 22.8015 -108.849 main 84 32 P_________P___ EP091981 22.8073 -108.843 TD 30 -1 22.7844 -108.866 1 30 9 312
1981240N17257 1981 72 EP MM IRWIN 1981-08-30 06:00:00 TS 23.0880 -109.214 30 hurdat_epa main 32 0 O_________P___ hurdat_epa EP091981 23.1000 -109.200 TD 30 -1 23.0520 -109.255 1 30 9 303
1981240N17257 1981 72 EP MM IRWIN 1981-08-30 09:00:00 TS 23.3100 -109.699 main 0 0 P_________P___ EP091981 23.3154 -109.710 TD 30 -1 23.2937 -109.666 1 30 9 297
1981240N17257 1981 72 EP MM IRWIN 1981-08-30 12:00:00 TS 23.5000 -110.100 30 hurdat_epa main 0 0 O_________O___ hurdat_epa EP091981 23.5000 -110.100 TD 30 -1 23.5000 -110.100 1 30 6 316
1981240N17257 1981 72 EP MM IRWIN 1981-08-30 15:00:00 TS 23.7072 -110.114 main 0 0 P_________P___ EP091981 23.7214 -109.968 TD 30 -1 23.6645 -110.550 1 30 4 339
1981240N17257 1981 72 EP MM IRWIN 1981-08-30 18:00:00 TS 23.8735 -110.255 30 hurdat_epa main 0 0 O_________P___ hurdat_epa EP091981 23.9000 -110.000 TD 30 -1 23.7941 -111.020 1 30 9 286
1981240N17257 1981 72 EP MM IRWIN 1981-08-30 21:00:00 TS 23.9511 -111.065 main 11 11 P_________P___ EP091981 23.9675 -110.918 TD 30 -1 23.9016 -111.505 1 30 16 275
1981240N17257 1981 72 EP MM IRWIN 1981-08-31 00:00:00 TS 24.0000 -112.000 30 hurdat_epa main 59 59 O_________O___ hurdat_epa EP091981 24.0000 -112.000 TD 30 -1 24.0000 -112.000 1 30 14 275
1981240N17257 1981 72 EP MM IRWIN 1981-08-31 03:00:00 TS 24.0854 -112.614 main 83 83 P_________P___ EP091981 24.0808 -112.652 TD 25 -1 24.0995 -112.499 1 25 9 282
1981240N17257 1981 72 EP MM IRWIN 1981-08-31 06:00:00 TS 24.2000 -113.000 20 hurdat_epa main 105 O_________O___ hurdat_epa EP091981 24.2000 -113.000 TD 20 -1 24.2000 -113.000 1 20 7 288

IBTrACS Databaseについて

本データベースは、米国NOAAが公開する1842年以降の世界の熱帯低気圧のベストトラックデータアーカイブInternational Best Track Archive for Climate Stewardship (IBTrACS)を、ウェブで閲覧しやすい形式に変換したものです。

最終更新日:2021-10-19